Troy, NY (12180)

11:02 AM EDT on July 27, 2016 (GMT -0400)
Eagle Mills | | Change Station

Elev 545 ft 42.71 °N, 73.61 °W | Updated 1 second ago

Partly Cloudy
Partly Cloudy
83.9 °F
Feels Like 86 °F
N
0.0
Wind Variable Wind from SW
Gusts 1.2 mph

Today
High -- | Low -- °F
--% Chance of Precip.
Yesterday
High -- | Low -- °F
Precip. -- in
Pressure 29.96 in
Visibility 10.0 miles
Clouds Few 4500 ft
Heat Index 86 °F
Dew Point 65 °F
Humidity 53%
Rainfall 0.00 in
Snow Depth Not available.
5:41 AM 8:19 PM
Last Quarter, 42% visible
METAR KALB 271451Z 00000KT 10SM FEW045 27/16 A2996 RMK AO2 SLP143 T02720161 58004
Pressure 29.96 in
Visibility 10.0 miles
Clouds Few 4500 ft
Heat Index 86 °F
Dew Point 65 °F
Humidity 53%
Rainfall 0.00 in
Snow Depth Not available.
5:41 AM 8:19 PM
Last Quarter, 42% visible
METAR KALB 271451Z 00000KT 10SM FEW045 27/16 A2996 RMK AO2 SLP143 T02720161 58004

10-Day Weather Forecast

Almanac

Astronomy

Jul. 27, 2016 Rise Set
Actual Time
Civil Twilight
Nautical Twilight
Astronomical Twilight
Moon
Length of Visible Light
Length of Day
Tomorrow will be .
, % of the Moon is Illuminated

Today's Extremes

State Highs State Lows

Community

WunderPhotos

Upload Photos

1,927,858 photos uploaded!

WunderBlog® & News

Nearby

Air Quality

  Air Quality AQ Index Pollutant
Not available.

Snow Depth

Station Depth Elevation

Earthquake Activity

City Distance Mag. Time & Date
Minimum magnitude displayed is 2.5.

Coastal Water Temperatures

Place Temperature

Stations

Nearby Weather Stations

Station Location Temp. Windchill Dew Point Humidity Wind Precip. Elev Updated Type
                   

Watches & Warnings

There are currently no watches in effect.